sensor_id;sensor_type;location;lat;lon;timestamp;P1;durP1;ratioP1;P2;durP2;ratioP2
2464;SDS011;1244;54.326;10.074;2023-04-25T00:01:54;0.20;;;0.20;;
2464;SDS011;1244;54.326;10.074;2023-04-25T00:04:21;0.20;;;0.20;;
2464;SDS011;1244;54.326;10.074;2023-04-25T00:06:47;0.20;;;0.20;;
2464;SDS011;1244;54.326;10.074;2023-04-25T00:09:13;0.20;;;0.20;;
2464;SDS011;1244;54.326;10.074;2023-04-25T00:11:38;0.20;;;0.20;;
2464;SDS011;1244;54.326;10.074;2023-04-25T00:14:05;0.20;;;0.20;;
2464;SDS011;1244;54.326;10.074;2023-04-25T00:16:31;0.20;;;0.20;;
2464;SDS011;1244;54.326;10.074;2023-04-25T00:18:59;0.20;;;0.20;;
2464;SDS011;1244;54.326;10.074;2023-04-25T00:21:26;0.20;;;0.20;;
2464;SDS011;1244;54.326;10.074;2023-04-25T00:23:53;0.20;;;0.20;;
2464;SDS011;1244;54.326;10.074;2023-04-25T00:26:18;0.20;;;0.20;;
2464;SDS011;1244;54.326;10.074;2023-04-25T00:28:46;0.20;;;0.20;;
2464;SDS011;1244;54.326;10.074;2023-04-25T00:31:11;0.20;;;0.20;;
2464;SDS011;1244;54.326;10.074;2023-04-25T00:33:37;0.20;;;0.20;;
2464;SDS011;1244;54.326;10.074;2023-04-25T00:36:02;0.20;;;0.20;;
2464;SDS011;1244;54.326;10.074;2023-04-25T00:38:28;0.20;;;0.20;;
2464;SDS011;1244;54.326;10.074;2023-04-25T00:40:54;0.20;;;0.20;;
2464;SDS011;1244;54.326;10.074;2023-04-25T00:43:20;0.20;;;0.20;;
2464;SDS011;1244;54.326;10.074;2023-04-25T00:45:46;0.20;;;0.20;;
2464;SDS011;1244;54.326;10.074;2023-04-25T00:48:13;0.20;;;0.20;;
2464;SDS011;1244;54.326;10.074;2023-04-25T00:50:39;0.20;;;0.20;;
2464;SDS011;1244;54.326;10.074;2023-04-25T00:53:05;0.20;;;0.20;;
2464;SDS011;1244;54.326;10.074;2023-04-25T00:55:31;0.17;;;0.17;;
2464;SDS011;1244;54.326;10.074;2023-04-25T00:57:59;0.20;;;0.20;;
2464;SDS011;1244;54.326;10.074;2023-04-25T01:00:25;0.20;;;0.20;;
2464;SDS011;1244;54.326;10.074;2023-04-25T01:02:51;0.20;;;0.20;;
2464;SDS011;1244;54.326;10.074;2023-04-25T01:05:16;0.30;;;0.30;;
2464;SDS011;1244;54.326;10.074;2023-04-25T01:07:43;0.20;;;0.20;;
2464;SDS011;1244;54.326;10.074;2023-04-25T01:10:09;0.20;;;0.20;;
2464;SDS011;1244;54.326;10.074;2023-04-25T01:12:35;0.10;;;0.10;;
2464;SDS011;1244;54.326;10.074;2023-04-25T01:15:02;0.20;;;0.20;;
2464;SDS011;1244;54.326;10.074;2023-04-25T01:17:28;0.20;;;0.20;;
2464;SDS011;1244;54.326;10.074;2023-04-25T01:19:54;0.20;;;0.20;;
2464;SDS011;1244;54.326;10.074;2023-04-25T01:22:20;0.20;;;0.20;;
2464;SDS011;1244;54.326;10.074;2023-04-25T01:24:45;0.23;;;0.23;;
2464;SDS011;1244;54.326;10.074;2023-04-25T01:27:11;0.20;;;0.20;;
2464;SDS011;1244;54.326;10.074;2023-04-25T01:29:37;0.20;;;0.20;;
2464;SDS011;1244;54.326;10.074;2023-04-25T01:32:03;0.20;;;0.20;;
2464;SDS011;1244;54.326;10.074;2023-04-25T01:34:30;0.20;;;0.20;;
2464;SDS011;1244;54.326;10.074;2023-04-25T01:36:55;0.23;;;0.23;;
2464;SDS011;1244;54.326;10.074;2023-04-25T01:39:21;0.20;;;0.20;;
2464;SDS011;1244;54.326;10.074;2023-04-25T01:41:47;0.20;;;0.20;;
2464;SDS011;1244;54.326;10.074;2023-04-25T01:44:13;0.20;;;0.20;;
2464;SDS011;1244;54.326;10.074;2023-04-25T01:46:39;0.20;;;0.20;;
2464;SDS011;1244;54.326;10.074;2023-04-25T01:49:05;0.20;;;0.20;;
2464;SDS011;1244;54.326;10.074;2023-04-25T01:51:31;0.20;;;0.20;;
2464;SDS011;1244;54.326;10.074;2023-04-25T01:53:57;0.20;;;0.20;;
2464;SDS011;1244;54.326;10.074;2023-04-25T01:56:23;0.20;;;0.20;;
2464;SDS011;1244;54.326;10.074;2023-04-25T01:58:48;0.20;;;0.20;;
2464;SDS011;1244;54.326;10.074;2023-04-25T02:01:14;0.20;;;0.20;;
2464;SDS011;1244;54.326;10.074;2023-04-25T02:03:43;0.20;;;0.20;;
2464;SDS011;1244;54.326;10.074;2023-04-25T02:06:09;0.20;;;0.20;;
2464;SDS011;1244;54.326;10.074;2023-04-25T02:08:34;0.30;;;0.30;;
2464;SDS011;1244;54.326;10.074;2023-04-25T02:11:02;0.17;;;0.17;;
2464;SDS011;1244;54.326;10.074;2023-04-25T02:13:28;0.30;;;0.30;;
2464;SDS011;1244;54.326;10.074;2023-04-25T02:15:56;0.30;;;0.30;;
2464;SDS011;1244;54.326;10.074;2023-04-25T02:18:26;0.30;;;0.30;;
2464;SDS011;1244;54.326;10.074;2023-04-25T02:20:52;0.23;;;0.23;;
2464;SDS011;1244;54.326;10.074;2023-04-25T02:23:20;0.20;;;0.20;;
2464;SDS011;1244;54.326;10.074;2023-04-25T02:25:46;0.30;;;0.30;;
2464;SDS011;1244;54.326;10.074;2023-04-25T02:28:11;0.30;;;0.30;;
2464;SDS011;1244;54.326;10.074;2023-04-25T02:30:37;0.20;;;0.20;;
2464;SDS011;1244;54.326;10.074;2023-04-25T02:33:02;0.20;;;0.20;;
2464;SDS011;1244;54.326;10.074;2023-04-25T02:35:28;0.20;;;0.20;;
2464;SDS011;1244;54.326;10.074;2023-04-25T02:37:53;0.20;;;0.20;;
2464;SDS011;1244;54.326;10.074;2023-04-25T02:40:19;0.30;;;0.30;;
2464;SDS011;1244;54.326;10.074;2023-04-25T02:42:45;0.20;;;0.20;;
2464;SDS011;1244;54.326;10.074;2023-04-25T02:45:11;0.30;;;0.30;;
2464;SDS011;1244;54.326;10.074;2023-04-25T02:47:36;0.30;;;0.30;;
2464;SDS011;1244;54.326;10.074;2023-04-25T02:50:02;0.20;;;0.20;;
2464;SDS011;1244;54.326;10.074;2023-04-25T02:52:28;0.30;;;0.30;;
2464;SDS011;1244;54.326;10.074;2023-04-25T02:54:54;0.20;;;0.20;;
2464;SDS011;1244;54.326;10.074;2023-04-25T02:57:19;0.20;;;0.20;;
2464;SDS011;1244;54.326;10.074;2023-04-25T02:59:45;0.20;;;0.20;;
2464;SDS011;1244;54.326;10.074;2023-04-25T03:02:10;0.30;;;0.30;;
2464;SDS011;1244;54.326;10.074;2023-04-25T03:04:36;0.20;;;0.20;;
2464;SDS011;1244;54.326;10.074;2023-04-25T03:07:01;0.20;;;0.20;;
2464;SDS011;1244;54.326;10.074;2023-04-25T03:09:27;0.20;;;0.20;;
2464;SDS011;1244;54.326;10.074;2023-04-25T03:11:52;0.20;;;0.20;;
2464;SDS011;1244;54.326;10.074;2023-04-25T03:14:18;0.20;;;0.20;;
2464;SDS011;1244;54.326;10.074;2023-04-25T03:16:43;0.20;;;0.20;;
2464;SDS011;1244;54.326;10.074;2023-04-25T03:19:09;0.20;;;0.20;;
2464;SDS011;1244;54.326;10.074;2023-04-25T03:21:35;0.20;;;0.20;;
2464;SDS011;1244;54.326;10.074;2023-04-25T03:24:01;0.23;;;0.23;;
2464;SDS011;1244;54.326;10.074;2023-04-25T03:26:28;0.20;;;0.20;;
2464;SDS011;1244;54.326;10.074;2023-04-25T03:28:54;0.20;;;0.20;;
2464;SDS011;1244;54.326;10.074;2023-04-25T03:31:19;0.20;;;0.20;;
2464;SDS011;1244;54.326;10.074;2023-04-25T03:33:45;0.13;;;0.13;;
2464;SDS011;1244;54.326;10.074;2023-04-25T03:36:10;0.23;;;0.23;;
2464;SDS011;1244;54.326;10.074;2023-04-25T03:38:36;0.20;;;0.20;;
2464;SDS011;1244;54.326;10.074;2023-04-25T03:41:01;0.30;;;0.30;;
2464;SDS011;1244;54.326;10.074;2023-04-25T03:43:27;0.20;;;0.20;;
2464;SDS011;1244;54.326;10.074;2023-04-25T03:45:53;0.20;;;0.20;;
2464;SDS011;1244;54.326;10.074;2023-04-25T03:48:18;0.20;;;0.20;;
2464;SDS011;1244;54.326;10.074;2023-04-25T03:50:46;0.20;;;0.20;;
2464;SDS011;1244;54.326;10.074;2023-04-25T03:53:12;0.20;;;0.20;;
2464;SDS011;1244;54.326;10.074;2023-04-25T03:55:37;0.30;;;0.30;;
2464;SDS011;1244;54.326;10.074;2023-04-25T03:58:03;0.23;;;0.23;;
2464;SDS011;1244;54.326;10.074;2023-04-25T04:00:28;0.30;;;0.30;;
2464;SDS011;1244;54.326;10.074;2023-04-25T04:02:54;0.20;;;0.20;;
2464;SDS011;1244;54.326;10.074;2023-04-25T04:05:20;0.20;;;0.20;;
2464;SDS011;1244;54.326;10.074;2023-04-25T04:07:45;0.30;;;0.30;;
2464;SDS011;1244;54.326;10.074;2023-04-25T04:10:11;0.20;;;0.20;;
2464;SDS011;1244;54.326;10.074;2023-04-25T04:12:37;0.20;;;0.20;;
2464;SDS011;1244;54.326;10.074;2023-04-25T04:15:04;0.27;;;0.27;;
2464;SDS011;1244;54.326;10.074;2023-04-25T04:17:30;0.20;;;0.20;;
2464;SDS011;1244;54.326;10.074;2023-04-25T04:19:56;0.20;;;0.20;;
2464;SDS011;1244;54.326;10.074;2023-04-25T04:22:22;0.23;;;0.23;;
2464;SDS011;1244;54.326;10.074;2023-04-25T04:24:48;0.20;;;0.20;;
2464;SDS011;1244;54.326;10.074;2023-04-25T04:27:14;0.20;;;0.20;;
2464;SDS011;1244;54.326;10.074;2023-04-25T04:29:44;0.20;;;0.20;;
2464;SDS011;1244;54.326;10.074;2023-04-25T04:32:10;0.20;;;0.20;;
2464;SDS011;1244;54.326;10.074;2023-04-25T04:34:36;0.20;;;0.20;;
2464;SDS011;1244;54.326;10.074;2023-04-25T04:37:02;0.30;;;0.30;;
2464;SDS011;1244;54.326;10.074;2023-04-25T04:39:27;0.20;;;0.20;;
2464;SDS011;1244;54.326;10.074;2023-04-25T04:41:53;0.10;;;0.10;;
2464;SDS011;1244;54.326;10.074;2023-04-25T04:44:18;0.20;;;0.20;;
2464;SDS011;1244;54.326;10.074;2023-04-25T04:46:44;0.20;;;0.20;;
2464;SDS011;1244;54.326;10.074;2023-04-25T04:49:11;0.20;;;0.20;;
2464;SDS011;1244;54.326;10.074;2023-04-25T04:51:38;0.27;;;0.27;;
2464;SDS011;1244;54.326;10.074;2023-04-25T04:54:09;0.20;;;0.20;;
2464;SDS011;1244;54.326;10.074;2023-04-25T04:56:36;0.20;;;0.20;;
2464;SDS011;1244;54.326;10.074;2023-04-25T04:59:03;0.20;;;0.20;;
2464;SDS011;1244;54.326;10.074;2023-04-25T05:01:29;0.20;;;0.20;;
2464;SDS011;1244;54.326;10.074;2023-04-25T05:03:56;0.20;;;0.20;;
2464;SDS011;1244;54.326;10.074;2023-04-25T05:06:25;0.20;;;0.20;;
2464;SDS011;1244;54.326;10.074;2023-04-25T05:08:51;0.20;;;0.20;;
2464;SDS011;1244;54.326;10.074;2023-04-25T05:11:19;0.20;;;0.20;;
2464;SDS011;1244;54.326;10.074;2023-04-25T05:13:47;0.20;;;0.20;;
2464;SDS011;1244;54.326;10.074;2023-04-25T05:16:13;0.20;;;0.20;;
2464;SDS011;1244;54.326;10.074;2023-04-25T05:18:39;0.20;;;0.20;;
2464;SDS011;1244;54.326;10.074;2023-04-25T05:21:06;0.20;;;0.20;;
2464;SDS011;1244;54.326;10.074;2023-04-25T05:23:32;0.20;;;0.20;;
2464;SDS011;1244;54.326;10.074;2023-04-25T05:25:58;0.20;;;0.20;;
2464;SDS011;1244;54.326;10.074;2023-04-25T05:28:24;0.20;;;0.20;;
2464;SDS011;1244;54.326;10.074;2023-04-25T05:30:50;0.20;;;0.20;;
2464;SDS011;1244;54.326;10.074;2023-04-25T05:33:17;0.20;;;0.20;;
2464;SDS011;1244;54.326;10.074;2023-04-25T05:35:44;0.20;;;0.20;;
2464;SDS011;1244;54.326;10.074;2023-04-25T05:38:20;0.17;;;0.17;;
2464;SDS011;1244;54.326;10.074;2023-04-25T05:40:48;0.20;;;0.20;;
2464;SDS011;1244;54.326;10.074;2023-04-25T05:43:14;0.20;;;0.20;;
2464;SDS011;1244;54.326;10.074;2023-04-25T05:45:40;0.20;;;0.20;;
2464;SDS011;1244;54.326;10.074;2023-04-25T05:48:06;0.20;;;0.20;;
2464;SDS011;1244;54.326;10.074;2023-04-25T05:50:31;0.20;;;0.20;;
2464;SDS011;1244;54.326;10.074;2023-04-25T05:52:57;0.20;;;0.20;;
2464;SDS011;1244;54.326;10.074;2023-04-25T05:55:22;0.20;;;0.20;;
2464;SDS011;1244;54.326;10.074;2023-04-25T05:57:48;0.20;;;0.20;;
2464;SDS011;1244;54.326;10.074;2023-04-25T06:00:13;0.20;;;0.20;;
2464;SDS011;1244;54.326;10.074;2023-04-25T06:02:40;0.20;;;0.20;;
2464;SDS011;1244;54.326;10.074;2023-04-25T06:05:06;0.20;;;0.20;;
2464;SDS011;1244;54.326;10.074;2023-04-25T06:07:32;0.20;;;0.20;;
2464;SDS011;1244;54.326;10.074;2023-04-25T06:09:58;0.20;;;0.20;;
2464;SDS011;1244;54.326;10.074;2023-04-25T06:12:25;0.20;;;0.20;;
2464;SDS011;1244;54.326;10.074;2023-04-25T06:14:51;0.27;;;0.27;;
2464;SDS011;1244;54.326;10.074;2023-04-25T06:17:18;0.20;;;0.20;;
2464;SDS011;1244;54.326;10.074;2023-04-25T06:19:46;0.13;;;0.13;;
2464;SDS011;1244;54.326;10.074;2023-04-25T06:22:13;0.10;;;0.10;;
2464;SDS011;1244;54.326;10.074;2023-04-25T06:24:40;0.20;;;0.20;;
2464;SDS011;1244;54.326;10.074;2023-04-25T06:27:07;0.20;;;0.20;;
2464;SDS011;1244;54.326;10.074;2023-04-25T06:29:33;0.20;;;0.20;;
2464;SDS011;1244;54.326;10.074;2023-04-25T06:31:58;0.10;;;0.10;;
2464;SDS011;1244;54.326;10.074;2023-04-25T06:34:24;0.20;;;0.20;;
2464;SDS011;1244;54.326;10.074;2023-04-25T06:36:49;0.20;;;0.20;;
2464;SDS011;1244;54.326;10.074;2023-04-25T06:39:15;0.20;;;0.20;;
2464;SDS011;1244;54.326;10.074;2023-04-25T06:41:41;0.20;;;0.20;;
2464;SDS011;1244;54.326;10.074;2023-04-25T06:44:06;0.20;;;0.20;;
2464;SDS011;1244;54.326;10.074;2023-04-25T06:46:32;0.20;;;0.20;;
2464;SDS011;1244;54.326;10.074;2023-04-25T06:48:57;0.20;;;0.20;;
2464;SDS011;1244;54.326;10.074;2023-04-25T06:51:23;0.20;;;0.20;;
2464;SDS011;1244;54.326;10.074;2023-04-25T06:53:49;0.20;;;0.20;;
2464;SDS011;1244;54.326;10.074;2023-04-25T06:56:15;0.10;;;0.10;;
2464;SDS011;1244;54.326;10.074;2023-04-25T06:58:41;0.20;;;0.20;;
2464;SDS011;1244;54.326;10.074;2023-04-25T07:01:06;0.10;;;0.10;;
2464;SDS011;1244;54.326;10.074;2023-04-25T07:03:32;0.20;;;0.20;;
2464;SDS011;1244;54.326;10.074;2023-04-25T07:05:57;0.20;;;0.20;;
2464;SDS011;1244;54.326;10.074;2023-04-25T07:08:23;0.10;;;0.10;;
2464;SDS011;1244;54.326;10.074;2023-04-25T07:10:48;0.20;;;0.20;;
2464;SDS011;1244;54.326;10.074;2023-04-25T07:13:14;0.20;;;0.20;;
2464;SDS011;1244;54.326;10.074;2023-04-25T07:15:40;0.20;;;0.20;;
2464;SDS011;1244;54.326;10.074;2023-04-25T07:18:05;0.20;;;0.20;;
2464;SDS011;1244;54.326;10.074;2023-04-25T07:20:31;0.20;;;0.20;;
2464;SDS011;1244;54.326;10.074;2023-04-25T07:22:57;0.20;;;0.20;;
2464;SDS011;1244;54.326;10.074;2023-04-25T07:25:23;0.20;;;0.20;;
2464;SDS011;1244;54.326;10.074;2023-04-25T07:27:48;0.20;;;0.20;;
2464;SDS011;1244;54.326;10.074;2023-04-25T07:30:14;0.13;;;0.13;;
2464;SDS011;1244;54.326;10.074;2023-04-25T07:32:40;0.10;;;0.10;;
2464;SDS011;1244;54.326;10.074;2023-04-25T07:35:05;0.20;;;0.20;;
2464;SDS011;1244;54.326;10.074;2023-04-25T07:37:32;0.20;;;0.20;;
2464;SDS011;1244;54.326;10.074;2023-04-25T07:39:59;0.20;;;0.20;;
2464;SDS011;1244;54.326;10.074;2023-04-25T07:42:25;0.20;;;0.20;;
2464;SDS011;1244;54.326;10.074;2023-04-25T07:44:50;0.20;;;0.20;;
2464;SDS011;1244;54.326;10.074;2023-04-25T07:47:16;0.20;;;0.20;;
2464;SDS011;1244;54.326;10.074;2023-04-25T07:49:44;0.20;;;0.20;;
2464;SDS011;1244;54.326;10.074;2023-04-25T07:52:10;0.20;;;0.20;;
2464;SDS011;1244;54.326;10.074;2023-04-25T07:54:36;0.20;;;0.20;;
2464;SDS011;1244;54.326;10.074;2023-04-25T07:57:01;0.20;;;0.20;;
2464;SDS011;1244;54.326;10.074;2023-04-25T07:59:27;0.20;;;0.20;;
2464;SDS011;1244;54.326;10.074;2023-04-25T08:01:52;0.20;;;0.20;;
2464;SDS011;1244;54.326;10.074;2023-04-25T08:04:18;0.13;;;0.13;;
2464;SDS011;1244;54.326;10.074;2023-04-25T08:06:43;0.10;;;0.10;;
2464;SDS011;1244;54.326;10.074;2023-04-25T08:09:10;0.10;;;0.10;;
2464;SDS011;1244;54.326;10.074;2023-04-25T08:11:36;0.20;;;0.20;;
2464;SDS011;1244;54.326;10.074;2023-04-25T08:14:01;0.20;;;0.20;;
2464;SDS011;1244;54.326;10.074;2023-04-25T08:16:27;0.20;;;0.20;;
2464;SDS011;1244;54.326;10.074;2023-04-25T08:18:53;0.20;;;0.20;;
2464;SDS011;1244;54.326;10.074;2023-04-25T08:21:18;0.10;;;0.10;;
2464;SDS011;1244;54.326;10.074;2023-04-25T08:23:44;0.20;;;0.20;;
2464;SDS011;1244;54.326;10.074;2023-04-25T08:26:10;0.20;;;0.20;;
2464;SDS011;1244;54.326;10.074;2023-04-25T08:28:35;0.20;;;0.20;;
2464;SDS011;1244;54.326;10.074;2023-04-25T08:31:01;0.10;;;0.10;;
2464;SDS011;1244;54.326;10.074;2023-04-25T08:33:26;0.10;;;0.10;;
2464;SDS011;1244;54.326;10.074;2023-04-25T08:35:52;0.20;;;0.20;;
2464;SDS011;1244;54.326;10.074;2023-04-25T08:38:18;0.17;;;0.17;;
2464;SDS011;1244;54.326;10.074;2023-04-25T08:40:44;0.20;;;0.20;;
2464;SDS011;1244;54.326;10.074;2023-04-25T08:43:13;0.13;;;0.13;;
2464;SDS011;1244;54.326;10.074;2023-04-25T08:45:40;0.10;;;0.10;;
2464;SDS011;1244;54.326;10.074;2023-04-25T08:48:11;0.17;;;0.17;;
2464;SDS011;1244;54.326;10.074;2023-04-25T08:50:45;0.10;;;0.10;;
2464;SDS011;1244;54.326;10.074;2023-04-25T08:53:37;0.10;;;0.10;;
2464;SDS011;1244;54.326;10.074;2023-04-25T08:56:07;0.20;;;0.20;;
2464;SDS011;1244;54.326;10.074;2023-04-25T08:58:34;0.10;;;0.10;;
2464;SDS011;1244;54.326;10.074;2023-04-25T09:01:00;0.17;;;0.17;;
2464;SDS011;1244;54.326;10.074;2023-04-25T09:03:26;0.10;;;0.10;;
2464;SDS011;1244;54.326;10.074;2023-04-25T09:05:52;0.10;;;0.10;;
2464;SDS011;1244;54.326;10.074;2023-04-25T09:08:20;0.20;;;0.20;;
2464;SDS011;1244;54.326;10.074;2023-04-25T09:10:49;0.20;;;0.20;;
2464;SDS011;1244;54.326;10.074;2023-04-25T09:13:24;0.13;;;0.13;;
2464;SDS011;1244;54.326;10.074;2023-04-25T09:15:54;0.20;;;0.20;;
2464;SDS011;1244;54.326;10.074;2023-04-25T09:18:22;0.10;;;0.10;;
2464;SDS011;1244;54.326;10.074;2023-04-25T09:20:55;0.10;;;0.10;;
2464;SDS011;1244;54.326;10.074;2023-04-25T09:23:44;0.20;;;0.20;;
2464;SDS011;1244;54.326;10.074;2023-04-25T09:26:13;0.10;;;0.10;;
2464;SDS011;1244;54.326;10.074;2023-04-25T09:28:40;0.10;;;0.10;;
2464;SDS011;1244;54.326;10.074;2023-04-25T09:31:07;0.10;;;0.10;;
2464;SDS011;1244;54.326;10.074;2023-04-25T09:33:35;0.17;;;0.17;;
2464;SDS011;1244;54.326;10.074;2023-04-25T09:36:02;0.10;;;0.10;;
2464;SDS011;1244;54.326;10.074;2023-04-25T09:38:32;0.10;;;0.10;;
2464;SDS011;1244;54.326;10.074;2023-04-25T09:41:06;0.10;;;0.10;;
2464;SDS011;1244;54.326;10.074;2023-04-25T09:43:32;0.10;;;0.10;;
2464;SDS011;1244;54.326;10.074;2023-04-25T09:45:57;0.20;;;0.20;;
2464;SDS011;1244;54.326;10.074;2023-04-25T09:48:25;0.10;;;0.10;;
2464;SDS011;1244;54.326;10.074;2023-04-25T09:51:08;0.10;;;0.10;;
2464;SDS011;1244;54.326;10.074;2023-04-25T09:53:39;0.10;;;0.10;;
2464;SDS011;1244;54.326;10.074;2023-04-25T09:56:05;0.20;;;0.20;;
2464;SDS011;1244;54.326;10.074;2023-04-25T09:58:32;0.10;;;0.10;;
2464;SDS011;1244;54.326;10.074;2023-04-25T10:01:00;0.10;;;0.10;;
2464;SDS011;1244;54.326;10.074;2023-04-25T10:03:29;0.10;;;0.10;;
2464;SDS011;1244;54.326;10.074;2023-04-25T10:05:57;0.10;;;0.10;;
2464;SDS011;1244;54.326;10.074;2023-04-25T10:08:24;0.13;;;0.13;;
2464;SDS011;1244;54.326;10.074;2023-04-25T10:10:54;0.10;;;0.10;;
2464;SDS011;1244;54.326;10.074;2023-04-25T10:13:20;0.10;;;0.10;;
2464;SDS011;1244;54.326;10.074;2023-04-25T10:15:45;0.10;;;0.10;;
2464;SDS011;1244;54.326;10.074;2023-04-25T10:18:12;0.10;;;0.10;;
2464;SDS011;1244;54.326;10.074;2023-04-25T10:20:38;0.10;;;0.10;;
2464;SDS011;1244;54.326;10.074;2023-04-25T10:23:06;0.10;;;0.10;;
2464;SDS011;1244;54.326;10.074;2023-04-25T10:25:41;0.10;;;0.10;;
2464;SDS011;1244;54.326;10.074;2023-04-25T10:28:08;0.10;;;0.10;;
2464;SDS011;1244;54.326;10.074;2023-04-25T10:30:33;0.03;;;0.03;;
2464;SDS011;1244;54.326;10.074;2023-04-25T10:32:59;0.10;;;0.10;;
2464;SDS011;1244;54.326;10.074;2023-04-25T10:35:26;0.10;;;0.10;;
2464;SDS011;1244;54.326;10.074;2023-04-25T10:38:00;0.10;;;0.10;;
2464;SDS011;1244;54.326;10.074;2023-04-25T10:40:35;0.10;;;0.10;;
2464;SDS011;1244;54.326;10.074;2023-04-25T10:44:02;0.10;;;0.10;;
2464;SDS011;1244;54.326;10.074;2023-04-25T10:45:56;0.10;;;0.10;;
2464;SDS011;1244;54.326;10.074;2023-04-25T10:48:27;0.10;;;0.10;;
2464;SDS011;1244;54.326;10.074;2023-04-25T10:54:00;0.10;;;0.10;;
2464;SDS011;1244;54.326;10.074;2023-04-25T10:56:44;0.07;;;0.07;;
2464;SDS011;1244;54.326;10.074;2023-04-25T10:59:17;0.10;;;0.10;;
2464;SDS011;1244;54.326;10.074;2023-04-25T11:01:44;0.10;;;0.10;;
2464;SDS011;1244;54.326;10.074;2023-04-25T11:04:23;0.10;;;0.10;;
2464;SDS011;1244;54.326;10.074;2023-04-25T11:09:34;0.10;;;0.10;;
2464;SDS011;1244;54.326;10.074;2023-04-25T11:12:00;0.10;;;0.10;;
2464;SDS011;1244;54.326;10.074;2023-04-25T11:14:26;0.10;;;0.10;;
2464;SDS011;1244;54.326;10.074;2023-04-25T11:16:56;0.10;;;0.10;;
2464;SDS011;1244;54.326;10.074;2023-04-25T11:19:23;0.10;;;0.10;;
2464;SDS011;1244;54.326;10.074;2023-04-25T11:21:49;0.10;;;0.10;;
2464;SDS011;1244;54.326;10.074;2023-04-25T11:24:18;0.10;;;0.10;;
2464;SDS011;1244;54.326;10.074;2023-04-25T11:26:46;0.10;;;0.10;;
2464;SDS011;1244;54.326;10.074;2023-04-25T11:29:13;0.10;;;0.10;;
2464;SDS011;1244;54.326;10.074;2023-04-25T11:31:42;0.10;;;0.10;;
2464;SDS011;1244;54.326;10.074;2023-04-25T11:34:08;0.10;;;0.10;;
2464;SDS011;1244;54.326;10.074;2023-04-25T11:36:34;0.10;;;0.10;;
2464;SDS011;1244;54.326;10.074;2023-04-25T11:39:02;0.00;;;0.00;;
2464;SDS011;1244;54.326;10.074;2023-04-25T11:41:28;0.00;;;0.00;;
2464;SDS011;1244;54.326;10.074;2023-04-25T11:43:54;0.00;;;0.00;;
2464;SDS011;1244;54.326;10.074;2023-04-25T11:46:19;0.00;;;0.00;;
2464;SDS011;1244;54.326;10.074;2023-04-25T11:48:46;0.00;;;0.00;;
2464;SDS011;1244;54.326;10.074;2023-04-25T11:51:12;0.00;;;0.00;;
2464;SDS011;1244;54.326;10.074;2023-04-25T11:53:40;0.00;;;0.00;;
2464;SDS011;1244;54.326;10.074;2023-04-25T11:56:10;0.00;;;0.00;;
2464;SDS011;1244;54.326;10.074;2023-04-25T12:01:26;0.10;;;0.10;;
2464;SDS011;1244;54.326;10.074;2023-04-25T12:03:56;0.10;;;0.10;;
2464;SDS011;1244;54.326;10.074;2023-04-25T12:06:25;0.10;;;0.10;;
2464;SDS011;1244;54.326;10.074;2023-04-25T12:09:02;0.10;;;0.10;;
2464;SDS011;1244;54.326;10.074;2023-04-25T12:11:32;0.10;;;0.10;;
2464;SDS011;1244;54.326;10.074;2023-04-25T12:14:04;0.10;;;0.10;;
2464;SDS011;1244;54.326;10.074;2023-04-25T12:16:30;0.10;;;0.10;;
2464;SDS011;1244;54.326;10.074;2023-04-25T12:19:05;0.00;;;0.00;;
2464;SDS011;1244;54.326;10.074;2023-04-25T12:21:32;0.00;;;0.00;;
2464;SDS011;1244;54.326;10.074;2023-04-25T12:26:49;0.03;;;0.03;;
2464;SDS011;1244;54.326;10.074;2023-04-25T12:29:19;0.10;;;0.10;;
2464;SDS011;1244;54.326;10.074;2023-04-25T12:31:49;0.10;;;0.10;;
2464;SDS011;1244;54.326;10.074;2023-04-25T12:34:16;0.10;;;0.10;;
2464;SDS011;1244;54.326;10.074;2023-04-25T12:36:45;0.10;;;0.10;;
2464;SDS011;1244;54.326;10.074;2023-04-25T12:39:17;0.10;;;0.10;;
2464;SDS011;1244;54.326;10.074;2023-04-25T12:41:44;0.07;;;0.07;;
2464;SDS011;1244;54.326;10.074;2023-04-25T12:44:11;0.10;;;0.10;;
2464;SDS011;1244;54.326;10.074;2023-04-25T12:46:37;0.10;;;0.10;;
2464;SDS011;1244;54.326;10.074;2023-04-25T12:49:03;0.10;;;0.10;;
2464;SDS011;1244;54.326;10.074;2023-04-25T12:51:29;0.10;;;0.10;;
2464;SDS011;1244;54.326;10.074;2023-04-25T12:53:57;0.10;;;0.10;;
2464;SDS011;1244;54.326;10.074;2023-04-25T12:56:23;0.10;;;0.10;;
2464;SDS011;1244;54.326;10.074;2023-04-25T12:58:49;0.10;;;0.10;;
2464;SDS011;1244;54.326;10.074;2023-04-25T13:01:15;0.10;;;0.10;;
2464;SDS011;1244;54.326;10.074;2023-04-25T13:03:40;0.10;;;0.10;;
2464;SDS011;1244;54.326;10.074;2023-04-25T13:06:06;0.10;;;0.10;;
2464;SDS011;1244;54.326;10.074;2023-04-25T13:08:32;0.10;;;0.10;;
2464;SDS011;1244;54.326;10.074;2023-04-25T13:10:58;0.10;;;0.10;;
2464;SDS011;1244;54.326;10.074;2023-04-25T13:13:23;0.10;;;0.10;;
2464;SDS011;1244;54.326;10.074;2023-04-25T13:15:49;0.07;;;0.07;;
2464;SDS011;1244;54.326;10.074;2023-04-25T13:18:14;0.10;;;0.10;;
2464;SDS011;1244;54.326;10.074;2023-04-25T13:20:41;0.10;;;0.10;;
2464;SDS011;1244;54.326;10.074;2023-04-25T13:23:07;0.10;;;0.10;;
2464;SDS011;1244;54.326;10.074;2023-04-25T13:25:32;0.03;;;0.03;;
2464;SDS011;1244;54.326;10.074;2023-04-25T13:27:58;0.10;;;0.10;;
2464;SDS011;1244;54.326;10.074;2023-04-25T13:30:23;0.07;;;0.07;;
2464;SDS011;1244;54.326;10.074;2023-04-25T13:32:49;0.00;;;0.00;;
2464;SDS011;1244;54.326;10.074;2023-04-25T13:35:14;0.10;;;0.10;;
2464;SDS011;1244;54.326;10.074;2023-04-25T13:37:41;0.10;;;0.10;;
2464;SDS011;1244;54.326;10.074;2023-04-25T13:40:08;0.10;;;0.10;;
2464;SDS011;1244;54.326;10.074;2023-04-25T13:42:36;0.07;;;0.07;;
2464;SDS011;1244;54.326;10.074;2023-04-25T13:45:02;0.10;;;0.10;;
2464;SDS011;1244;54.326;10.074;2023-04-25T13:47:29;0.10;;;0.10;;
2464;SDS011;1244;54.326;10.074;2023-04-25T13:49:55;0.10;;;0.10;;
2464;SDS011;1244;54.326;10.074;2023-04-25T13:52:21;0.10;;;0.10;;
2464;SDS011;1244;54.326;10.074;2023-04-25T13:54:46;0.10;;;0.10;;
2464;SDS011;1244;54.326;10.074;2023-04-25T13:57:12;0.10;;;0.10;;
2464;SDS011;1244;54.326;10.074;2023-04-25T13:59:38;0.10;;;0.10;;
2464;SDS011;1244;54.326;10.074;2023-04-25T14:02:05;0.10;;;0.10;;
2464;SDS011;1244;54.326;10.074;2023-04-25T14:04:31;0.10;;;0.10;;
2464;SDS011;1244;54.326;10.074;2023-04-25T14:06:57;0.10;;;0.10;;
2464;SDS011;1244;54.326;10.074;2023-04-25T14:09:23;0.10;;;0.10;;
2464;SDS011;1244;54.326;10.074;2023-04-25T14:11:53;0.20;;;0.20;;
2464;SDS011;1244;54.326;10.074;2023-04-25T14:14:20;0.10;;;0.10;;
2464;SDS011;1244;54.326;10.074;2023-04-25T14:16:47;0.10;;;0.10;;
2464;SDS011;1244;54.326;10.074;2023-04-25T14:19:13;0.10;;;0.10;;
2464;SDS011;1244;54.326;10.074;2023-04-25T14:21:39;0.10;;;0.10;;
2464;SDS011;1244;54.326;10.074;2023-04-25T14:24:05;0.20;;;0.20;;
2464;SDS011;1244;54.326;10.074;2023-04-25T14:26:31;0.20;;;0.20;;
2464;SDS011;1244;54.326;10.074;2023-04-25T14:28:58;0.10;;;0.10;;
2464;SDS011;1244;54.326;10.074;2023-04-25T14:31:24;0.20;;;0.20;;
2464;SDS011;1244;54.326;10.074;2023-04-25T14:33:50;0.20;;;0.20;;
2464;SDS011;1244;54.326;10.074;2023-04-25T14:36:15;0.10;;;0.10;;
2464;SDS011;1244;54.326;10.074;2023-04-25T14:38:41;0.10;;;0.10;;
2464;SDS011;1244;54.326;10.074;2023-04-25T14:41:06;0.20;;;0.20;;
2464;SDS011;1244;54.326;10.074;2023-04-25T14:43:32;0.17;;;0.17;;
2464;SDS011;1244;54.326;10.074;2023-04-25T14:45:57;0.10;;;0.10;;
2464;SDS011;1244;54.326;10.074;2023-04-25T14:48:23;0.17;;;0.17;;
2464;SDS011;1244;54.326;10.074;2023-04-25T14:50:49;0.20;;;0.20;;
2464;SDS011;1244;54.326;10.074;2023-04-25T14:53:14;0.10;;;0.10;;
2464;SDS011;1244;54.326;10.074;2023-04-25T14:55:40;0.20;;;0.20;;
2464;SDS011;1244;54.326;10.074;2023-04-25T14:58:06;0.10;;;0.10;;
2464;SDS011;1244;54.326;10.074;2023-04-25T15:00:31;0.13;;;0.13;;
2464;SDS011;1244;54.326;10.074;2023-04-25T15:02:58;0.10;;;0.10;;
2464;SDS011;1244;54.326;10.074;2023-04-25T15:05:24;0.10;;;0.10;;
2464;SDS011;1244;54.326;10.074;2023-04-25T15:07:50;0.10;;;0.10;;
2464;SDS011;1244;54.326;10.074;2023-04-25T15:10:17;0.20;;;0.20;;